createdAt,value
2022-11-26T00:01:21.393Z,2.63
2022-11-26T00:03:49.976Z,2.95
2022-11-26T00:06:32.277Z,3.00
2022-11-26T00:09:01.694Z,3.00
2022-11-26T00:11:29.849Z,2.92
2022-11-26T00:13:58.070Z,2.20
2022-11-26T00:16:28.241Z,2.60
2022-11-26T00:18:56.426Z,2.65
2022-11-26T00:21:26.331Z,2.47
2022-11-26T00:23:55.580Z,2.47
2022-11-26T00:26:25.197Z,2.58
2022-11-26T00:29:00.443Z,2.70
2022-11-26T00:31:29.766Z,2.25
2022-11-26T00:33:57.961Z,2.00
2022-11-26T00:36:32.267Z,2.47
2022-11-26T00:39:07.526Z,2.20
2022-11-26T00:41:38.979Z,2.00
2022-11-26T00:44:18.300Z,2.13
2022-11-26T00:46:46.428Z,2.00
2022-11-26T00:49:15.216Z,2.40
2022-11-26T00:51:43.816Z,1.85
2022-11-26T00:54:15.405Z,1.92
2022-11-26T00:56:43.480Z,1.90
2022-11-26T00:59:18.039Z,2.42
2022-11-26T01:01:46.380Z,2.63
2022-11-26T01:04:14.339Z,2.47
2022-11-26T01:06:45.227Z,2.40
2022-11-26T01:09:23.501Z,3.13
2022-11-26T01:11:54.513Z,3.30
2022-11-26T01:14:23.849Z,3.53
2022-11-26T01:16:55.256Z,3.67
2022-11-26T01:19:23.623Z,3.22
2022-11-26T01:21:51.674Z,3.35
2022-11-26T01:24:19.648Z,2.70
2022-11-26T01:26:47.627Z,2.80
2022-11-26T01:29:20.458Z,3.00
2022-11-26T01:31:48.803Z,2.60
2022-11-26T01:34:17.027Z,2.15
2022-11-26T01:36:44.952Z,2.92
2022-11-26T01:39:21.551Z,2.35
2022-11-26T01:41:57.447Z,2.33
2022-11-26T01:44:31.554Z,2.22
2022-11-26T01:47:00.721Z,4.40
2022-11-26T01:49:31.291Z,5.07
2022-11-26T01:52:25.531Z,5.20
2022-11-26T01:54:53.953Z,4.32
2022-11-26T01:57:30.535Z,3.10
2022-11-26T02:00:04.530Z,2.85
2022-11-26T02:02:41.608Z,2.03
2022-11-26T02:05:20.913Z,1.83
2022-11-26T02:07:50.125Z,1.60
2022-11-26T02:10:18.679Z,1.50
2022-11-26T02:12:47.737Z,1.60
2022-11-26T02:15:16.012Z,1.50
2022-11-26T02:17:49.172Z,1.40
2022-11-26T02:20:32.459Z,1.30
2022-11-26T02:23:37.642Z,1.33
2022-11-26T02:26:11.667Z,1.63
2022-11-26T02:28:55.415Z,1.20
2022-11-26T02:31:41.848Z,1.17
2022-11-26T02:34:25.699Z,1.33
2022-11-26T02:37:05.870Z,0.80
2022-11-26T02:39:33.825Z,1.00
2022-11-26T02:42:04.374Z,0.95
2022-11-26T02:44:45.083Z,1.10
2022-11-26T02:47:16.986Z,1.55
2022-11-26T02:49:46.550Z,1.25
2022-11-26T02:52:16.857Z,1.20
2022-11-26T02:54:46.442Z,1.27
2022-11-26T02:57:16.984Z,1.17
2022-11-26T02:59:45.586Z,1.30
2022-11-26T03:02:25.325Z,1.20
2022-11-26T03:04:57.252Z,1.15
2022-11-26T03:07:26.938Z,1.20
2022-11-26T03:09:57.279Z,1.33
2022-11-26T03:12:26.624Z,1.65
2022-11-26T03:14:54.854Z,1.02
2022-11-26T03:17:23.286Z,0.90
2022-11-26T03:19:52.024Z,1.10
2022-11-26T03:22:21.482Z,1.17
2022-11-26T03:24:49.540Z,0.95
2022-11-26T03:27:17.836Z,0.90
2022-11-26T03:29:46.165Z,0.90
2022-11-26T03:32:14.355Z,0.93
2022-11-26T03:34:43.161Z,0.68
2022-11-26T03:37:11.444Z,0.90
2022-11-26T03:39:39.763Z,0.80
2022-11-26T03:42:08.039Z,0.93
2022-11-26T03:44:36.872Z,1.02
2022-11-26T03:47:05.253Z,0.80
2022-11-26T03:49:33.654Z,0.80
2022-11-26T03:52:01.809Z,0.80
2022-11-26T03:54:29.944Z,0.90
2022-11-26T03:56:57.811Z,0.80
2022-11-26T03:59:25.964Z,0.70
2022-11-26T04:01:53.953Z,1.10
2022-11-26T04:04:22.119Z,0.70
2022-11-26T04:06:50.454Z,0.73
2022-11-26T04:09:18.531Z,0.70
2022-11-26T04:11:48.222Z,0.80
2022-11-26T04:14:17.515Z,0.57
2022-11-26T04:16:45.495Z,0.80
2022-11-26T04:19:13.458Z,0.63
2022-11-26T04:21:41.609Z,0.90
2022-11-26T04:24:10.127Z,1.05
2022-11-26T04:26:38.348Z,2.70
2022-11-26T04:29:06.469Z,3.45
2022-11-26T04:31:34.740Z,2.75
2022-11-26T04:34:02.873Z,2.60
2022-11-26T04:36:31.557Z,1.60
2022-11-26T04:38:59.565Z,1.58
2022-11-26T04:41:27.608Z,1.20
2022-11-26T04:43:55.825Z,1.10
2022-11-26T04:46:24.129Z,0.90
2022-11-26T04:48:52.155Z,1.10
2022-11-26T04:51:20.142Z,0.85
2022-11-26T04:53:49.078Z,0.80
2022-11-26T04:56:17.077Z,0.70
2022-11-26T04:58:45.127Z,0.80
2022-11-26T05:01:13.493Z,1.10
2022-11-26T05:03:41.527Z,0.80
2022-11-26T05:06:09.798Z,0.73
2022-11-26T05:08:38.162Z,0.50
2022-11-26T05:11:06.614Z,0.80
2022-11-26T05:13:34.953Z,0.60
2022-11-26T05:16:03.355Z,0.60
2022-11-26T05:18:31.312Z,0.50
2022-11-26T05:21:00.479Z,0.70
2022-11-26T05:23:28.383Z,0.73
2022-11-26T05:25:56.724Z,2.25
2022-11-26T05:28:25.144Z,2.15
2022-11-26T05:31:01.529Z,2.40
2022-11-26T05:33:30.351Z,2.15
2022-11-26T05:35:58.750Z,2.20
2022-11-26T05:38:27.468Z,2.13
2022-11-26T05:40:55.587Z,2.30
2022-11-26T05:43:23.958Z,2.72
2022-11-26T05:45:52.180Z,29.55
2022-11-26T05:48:20.459Z,30.88
2022-11-26T05:50:53.161Z,19.88
2022-11-26T05:53:22.556Z,12.30
2022-11-26T05:55:50.825Z,7.90
2022-11-26T05:58:19.154Z,5.28
2022-11-26T06:00:47.389Z,4.25
2022-11-26T06:03:19.779Z,4.22
2022-11-26T06:05:48.550Z,3.50
2022-11-26T06:08:16.816Z,2.78
2022-11-26T06:10:45.288Z,3.65
2022-11-26T06:13:13.358Z,7.65
2022-11-26T06:15:41.636Z,8.18
2022-11-26T06:18:09.722Z,8.43
2022-11-26T06:20:38.759Z,6.68
2022-11-26T06:23:06.991Z,5.20
2022-11-26T06:25:35.102Z,3.97
2022-11-26T06:28:03.388Z,3.05
2022-11-26T06:30:33.946Z,2.47
2022-11-26T06:33:02.191Z,2.10
2022-11-26T06:35:30.416Z,2.72
2022-11-26T06:37:58.588Z,3.70
2022-11-26T06:40:27.126Z,12.05
2022-11-26T06:42:55.143Z,12.00
2022-11-26T06:45:24.821Z,9.57
2022-11-26T06:47:53.418Z,7.20
2022-11-26T06:50:23.451Z,4.78
2022-11-26T06:52:53.072Z,4.80
2022-11-26T06:55:21.647Z,3.38
2022-11-26T06:57:51.670Z,3.13
2022-11-26T07:00:20.648Z,3.67
2022-11-26T07:02:49.413Z,4.80
2022-11-26T07:05:17.552Z,3.78
2022-11-26T07:07:45.657Z,4.00
2022-11-26T07:10:13.746Z,3.58
2022-11-26T07:12:42.038Z,3.60
2022-11-26T07:15:11.016Z,3.63
2022-11-26T07:17:39.408Z,2.63
2022-11-26T07:20:07.826Z,2.20
2022-11-26T07:22:36.372Z,1.85
2022-11-26T07:25:09.368Z,2.13
2022-11-26T07:27:40.917Z,1.80
2022-11-26T07:30:10.036Z,1.75
2022-11-26T07:32:38.337Z,1.60
2022-11-26T07:35:10.732Z,1.95
2022-11-26T07:37:39.016Z,1.77
2022-11-26T07:40:08.064Z,1.50
2022-11-26T07:42:36.078Z,1.50
2022-11-26T07:45:04.891Z,1.58
2022-11-26T07:47:33.202Z,1.52
2022-11-26T07:50:03.170Z,1.55
2022-11-26T07:52:31.444Z,0.98
2022-11-26T07:54:59.673Z,2.33
2022-11-26T07:57:28.874Z,2.75
2022-11-26T07:59:57.097Z,3.13
2022-11-26T08:02:25.414Z,3.10
2022-11-26T08:04:53.695Z,2.15
2022-11-26T08:07:26.082Z,1.77
2022-11-26T08:09:57.401Z,1.95
2022-11-26T08:12:25.636Z,1.40
2022-11-26T08:14:54.333Z,1.35
2022-11-26T08:17:22.565Z,1.20
2022-11-26T08:19:50.879Z,2.08
2022-11-26T08:22:19.226Z,1.40
2022-11-26T08:24:47.480Z,1.98
2022-11-26T08:27:15.761Z,1.92
2022-11-26T08:29:44.163Z,1.98
2022-11-26T08:32:14.661Z,1.38
2022-11-26T08:34:43.277Z,1.88
2022-11-26T08:37:11.313Z,1.77
2022-11-26T08:39:39.752Z,1.75
2022-11-26T08:42:07.930Z,1.45
2022-11-26T08:44:36.275Z,1.70
2022-11-26T08:47:04.973Z,2.10
2022-11-26T08:49:33.004Z,3.47
2022-11-26T08:52:01.231Z,1.20
2022-11-26T08:54:29.719Z,0.90
2022-11-26T08:56:57.759Z,1.30
2022-11-26T08:59:25.652Z,0.65
2022-11-26T09:01:53.832Z,1.23
2022-11-26T09:04:21.964Z,1.73
2022-11-26T09:06:50.217Z,2.80
2022-11-26T09:09:18.546Z,2.13
2022-11-26T09:11:48.174Z,2.58
2022-11-26T09:14:19.114Z,1.75
2022-11-26T09:16:48.252Z,1.70
2022-11-26T09:19:17.754Z,2.00
2022-11-26T09:21:46.342Z,2.13
2022-11-26T09:24:14.808Z,2.13
2022-11-26T09:26:43.407Z,2.33
2022-11-26T09:29:16.694Z,2.00
2022-11-26T09:32:15.521Z,3.65
2022-11-26T09:34:33.833Z,2.95
2022-11-26T09:37:02.109Z,2.35
2022-11-26T09:39:30.991Z,2.38
2022-11-26T09:42:07.254Z,2.00
2022-11-26T09:45:14.039Z,1.80
2022-11-26T09:47:48.356Z,2.28
2022-11-26T09:50:16.368Z,2.50
2022-11-26T09:53:13.792Z,2.60
2022-11-26T09:55:44.412Z,2.63
2022-11-26T09:58:25.265Z,2.80
2022-11-26T10:00:58.863Z,2.72
2022-11-26T10:03:36.518Z,2.42
2022-11-26T10:06:32.692Z,2.92
2022-11-26T10:09:03.797Z,2.30
2022-11-26T10:12:03.102Z,2.20
2022-11-26T10:14:46.698Z,2.65
2022-11-26T10:17:29.682Z,2.55
2022-11-26T10:20:00.542Z,3.90
2022-11-26T10:22:57.063Z,4.20
2022-11-26T10:25:30.383Z,4.60
2022-11-26T10:27:59.785Z,4.00
2022-11-26T10:30:29.649Z,3.53
2022-11-26T10:33:02.657Z,2.88
2022-11-26T10:35:30.785Z,2.22
2022-11-26T10:37:59.365Z,2.05
2022-11-26T10:40:32.432Z,1.55
2022-11-26T10:43:03.620Z,1.60
2022-11-26T10:45:42.179Z,1.73
2022-11-26T10:48:31.257Z,1.80
2022-11-26T10:51:06.340Z,2.05
2022-11-26T10:53:55.384Z,3.33
2022-11-26T10:56:31.717Z,2.55
2022-11-26T10:59:23.403Z,2.80
2022-11-26T11:01:56.027Z,3.53
2022-11-26T11:04:39.570Z,3.80
2022-11-26T11:07:39.164Z,4.00
2022-11-26T11:10:11.265Z,3.30
2022-11-26T11:12:51.176Z,3.20
2022-11-26T11:15:31.177Z,3.60
2022-11-26T11:18:22.487Z,3.15
2022-11-26T11:20:58.241Z,2.70
2022-11-26T11:23:46.129Z,1.98
2022-11-26T11:26:27.005Z,2.10
2022-11-26T11:28:56.660Z,2.08
2022-11-26T11:31:29.126Z,2.42
2022-11-26T11:34:20.402Z,2.80
2022-11-26T11:37:15.175Z,2.58
2022-11-26T11:39:44.338Z,2.47
2022-11-26T11:42:30.154Z,2.08
2022-11-26T11:45:00.959Z,2.53
2022-11-26T11:47:33.903Z,2.20
2022-11-26T11:50:20.357Z,2.40
2022-11-26T11:53:20.708Z,2.78
2022-11-26T11:56:02.500Z,2.40
2022-11-26T11:58:59.721Z,2.33
2022-11-26T12:01:46.060Z,2.38
2022-11-26T12:04:41.133Z,2.05
2022-11-26T12:07:40.574Z,1.77
2022-11-26T12:10:40.052Z,1.63
2022-11-26T12:13:14.388Z,1.70
2022-11-26T12:15:49.380Z,2.25
2022-11-26T12:18:31.212Z,2.00
2022-11-26T12:21:14.678Z,3.13
2022-11-26T12:24:06.407Z,2.78
2022-11-26T12:26:36.119Z,3.97
2022-11-26T12:29:12.786Z,4.10
2022-11-26T12:31:55.817Z,4.45
2022-11-26T12:34:40.289Z,4.95
2022-11-26T12:37:27.006Z,7.90
2022-11-26T12:39:59.778Z,12.40
2022-11-26T12:42:46.185Z,16.38
2022-11-26T12:45:36.361Z,16.95
2022-11-26T12:48:18.778Z,15.85
2022-11-26T12:50:57.387Z,19.58
2022-11-26T12:53:40.483Z,16.95
2022-11-26T12:56:11.637Z,16.38
2022-11-26T12:58:48.771Z,16.88
2022-11-26T13:03:45.424Z,12.13
2022-11-26T13:06:35.313Z,13.77
2022-11-26T13:09:17.265Z,12.00
2022-11-26T13:12:10.447Z,12.27
2022-11-26T13:14:45.622Z,10.18
2022-11-26T13:17:27.398Z,7.88
2022-11-26T13:20:23.630Z,7.30
2022-11-26T13:23:00.709Z,5.25
2022-11-26T13:25:57.872Z,4.78
2022-11-26T13:28:31.936Z,3.92
2022-11-26T13:31:24.609Z,4.82
2022-11-26T13:34:03.756Z,5.15
2022-11-26T13:37:13.927Z,5.43
2022-11-26T13:39:57.704Z,4.85
2022-11-26T13:42:56.709Z,5.13
2022-11-26T13:45:55.617Z,5.22
2022-11-26T13:48:48.344Z,6.22
2022-11-26T13:51:46.423Z,6.60
2022-11-26T13:54:23.767Z,9.43
2022-11-26T13:57:06.585Z,8.82
2022-11-26T13:59:35.365Z,7.55
2022-11-26T14:02:35.508Z,6.88
2022-11-26T14:05:24.215Z,7.22
2022-11-26T14:08:51.096Z,8.15
2022-11-26T14:11:54.819Z,7.40
2022-11-26T14:14:25.924Z,6.85
2022-11-26T14:17:03.423Z,8.35
2022-11-26T14:19:58.767Z,6.60
2022-11-26T14:22:35.106Z,7.20
2022-11-26T14:25:09.376Z,6.70
2022-11-26T14:27:57.870Z,6.85
2022-11-26T14:30:28.050Z,8.77
2022-11-26T14:33:17.617Z,8.77
2022-11-26T14:35:57.226Z,7.78
2022-11-26T14:38:28.060Z,7.55
2022-11-26T14:40:58.738Z,7.35
2022-11-26T14:43:29.337Z,11.00
2022-11-26T14:46:15.302Z,11.50
2022-11-26T14:48:49.054Z,9.82
2022-11-26T14:51:23.270Z,9.70
2022-11-26T14:53:52.102Z,9.35
2022-11-26T14:56:23.406Z,10.90
2022-11-26T14:59:02.215Z,11.82
2022-11-26T15:01:33.534Z,11.38
2022-11-26T15:04:03.301Z,9.40
2022-11-26T15:06:39.664Z,15.13
2022-11-26T15:09:10.807Z,18.50
2022-11-26T15:11:48.627Z,19.13
2022-11-26T15:14:38.971Z,18.38
2022-11-26T15:17:12.480Z,19.17
2022-11-26T15:19:41.691Z,17.02
2022-11-26T15:22:25.365Z,15.45
2022-11-26T15:24:54.729Z,13.75
2022-11-26T15:27:52.444Z,11.15
2022-11-26T15:30:24.116Z,9.60
2022-11-26T15:33:02.974Z,9.73
2022-11-26T15:35:33.555Z,15.80
2022-11-26T15:38:01.748Z,17.70
2022-11-26T15:40:33.243Z,17.65
2022-11-26T15:43:05.316Z,14.80
2022-11-26T15:45:41.499Z,13.30
2022-11-26T15:48:36.425Z,10.30
2022-11-26T15:51:22.912Z,9.32
2022-11-26T15:53:51.610Z,6.78
2022-11-26T15:56:26.784Z,5.72
2022-11-26T15:58:59.215Z,4.00
2022-11-26T16:01:32.932Z,4.72
2022-11-26T16:04:05.034Z,4.13
2022-11-26T16:06:42.104Z,4.43
2022-11-26T16:12:00.025Z,3.72
2022-11-26T16:14:41.401Z,4.95
2022-11-26T16:17:16.185Z,7.03
2022-11-26T16:19:51.669Z,6.57
2022-11-26T16:22:26.957Z,5.25
2022-11-26T16:25:22.619Z,5.43
2022-11-26T16:28:07.862Z,4.38
2022-11-26T16:30:36.694Z,3.72
2022-11-26T16:33:06.349Z,3.60
2022-11-26T16:35:50.924Z,3.53
2022-11-26T16:38:24.458Z,4.15
2022-11-26T16:40:53.733Z,3.85
2022-11-26T16:43:21.984Z,3.90
2022-11-26T16:45:53.462Z,3.92
2022-11-26T16:48:27.545Z,3.45
2022-11-26T16:50:57.010Z,3.35
2022-11-26T16:53:25.061Z,2.90
2022-11-26T16:55:54.009Z,2.92
2022-11-26T16:58:38.372Z,3.08
2022-11-26T17:01:06.611Z,2.67
2022-11-26T17:03:34.667Z,2.92
2022-11-26T17:06:11.491Z,2.75
2022-11-26T17:08:40.558Z,2.85
2022-11-26T17:11:13.375Z,2.75
2022-11-26T17:13:41.498Z,3.63
2022-11-26T17:16:18.679Z,3.72
2022-11-26T17:18:48.084Z,4.32
2022-11-26T17:21:16.515Z,4.43
2022-11-26T17:23:45.908Z,3.97
2022-11-26T17:26:19.616Z,5.82
2022-11-26T17:28:48.680Z,8.10
2022-11-26T17:31:18.199Z,14.35
2022-11-26T17:33:46.281Z,12.68
2022-11-26T17:36:18.204Z,10.48
2022-11-26T17:38:47.764Z,8.10
2022-11-26T17:41:17.677Z,7.03
2022-11-26T17:43:46.115Z,6.70
2022-11-26T17:46:19.794Z,6.43
2022-11-26T17:48:55.556Z,5.60
2022-11-26T17:51:26.254Z,5.60
2022-11-26T17:53:54.152Z,5.47
2022-11-26T17:56:24.407Z,5.68
2022-11-26T17:58:52.544Z,5.35
2022-11-26T18:01:21.257Z,8.07
2022-11-26T18:03:49.464Z,7.57
2022-11-26T18:06:37.595Z,5.07
2022-11-26T18:09:05.573Z,4.45
2022-11-26T18:11:48.026Z,4.07
2022-11-26T18:14:16.880Z,4.60
2022-11-26T18:16:45.357Z,4.55
2022-11-26T18:19:15.312Z,4.03
2022-11-26T18:21:43.943Z,4.55
2022-11-26T18:24:13.037Z,5.07
2022-11-26T18:26:41.246Z,4.63
2022-11-26T18:29:12.464Z,4.43
2022-11-26T18:31:40.757Z,4.20
2022-11-26T18:34:09.012Z,4.93
2022-11-26T18:36:36.932Z,4.75
2022-11-26T18:39:06.157Z,4.90
2022-11-26T18:41:34.924Z,5.47
2022-11-26T18:44:04.214Z,5.38
2022-11-26T18:46:33.204Z,5.05
2022-11-26T18:49:01.328Z,6.13
2022-11-26T18:51:29.716Z,5.78
2022-11-26T18:53:57.898Z,6.25
2022-11-26T18:56:26.481Z,5.72
2022-11-26T18:58:55.982Z,5.70
2022-11-26T19:01:30.928Z,5.07
2022-11-26T19:03:59.635Z,5.07
2022-11-26T19:06:29.865Z,4.05
2022-11-26T19:09:06.081Z,4.43
2022-11-26T19:11:34.261Z,5.07
2022-11-26T19:14:02.315Z,6.20
2022-11-26T19:16:30.396Z,5.43
2022-11-26T19:19:02.318Z,5.93
2022-11-26T19:21:33.196Z,5.55
2022-11-26T19:24:04.584Z,5.63
2022-11-26T19:26:33.137Z,5.30
2022-11-26T19:29:04.530Z,4.80
2022-11-26T19:31:39.776Z,4.13
2022-11-26T19:34:13.818Z,4.00
2022-11-26T19:36:42.575Z,3.22
2022-11-26T19:39:10.566Z,3.70
2022-11-26T19:41:38.494Z,4.03
2022-11-26T19:44:07.320Z,6.57
2022-11-26T19:46:37.402Z,6.53
2022-11-26T19:49:05.498Z,5.93
2022-11-26T19:51:33.520Z,5.25
2022-11-26T19:54:01.780Z,5.40
2022-11-26T19:56:31.583Z,5.68
2022-11-26T19:59:02.271Z,6.15
2022-11-26T20:01:31.867Z,6.10
2022-11-26T20:04:02.951Z,5.65
2022-11-26T20:06:32.855Z,6.15
2022-11-26T20:09:01.296Z,6.05
2022-11-26T20:11:29.528Z,7.35
2022-11-26T20:13:58.277Z,7.80
2022-11-26T20:16:32.561Z,16.40
2022-11-26T20:19:03.098Z,25.95
2022-11-26T20:21:32.942Z,30.38
2022-11-26T20:24:06.184Z,31.00
2022-11-26T20:26:37.486Z,26.33
2022-11-26T20:29:12.265Z,22.63
2022-11-26T20:31:45.474Z,20.67
2022-11-26T20:34:15.497Z,19.23
2022-11-26T20:36:44.554Z,18.65
2022-11-26T20:39:18.924Z,15.75
2022-11-26T20:41:47.555Z,13.85
2022-11-26T20:44:15.909Z,14.25
2022-11-26T20:46:43.962Z,13.27
2022-11-26T20:49:12.323Z,12.18
2022-11-26T20:51:40.583Z,11.60
2022-11-26T20:54:08.418Z,11.32
2022-11-26T20:56:37.722Z,10.75
2022-11-26T20:59:07.197Z,12.18
2022-11-26T21:01:37.455Z,11.63
2022-11-26T21:04:07.044Z,11.25
2022-11-26T21:06:36.789Z,10.98
2022-11-26T21:09:06.627Z,10.65
2022-11-26T21:11:35.027Z,10.52
2022-11-26T21:14:04.008Z,10.15
2022-11-26T21:16:33.132Z,11.30
2022-11-26T21:19:01.115Z,10.60
2022-11-26T21:21:29.622Z,9.60
2022-11-26T21:23:58.181Z,10.45
2022-11-26T21:26:27.098Z,8.90
2022-11-26T21:28:57.872Z,8.07
2022-11-26T21:31:27.724Z,8.85
2022-11-26T21:33:58.249Z,8.57
2022-11-26T21:36:26.827Z,9.27
2022-11-26T21:38:55.465Z,9.27
2022-11-26T21:41:24.309Z,8.75
2022-11-26T21:43:52.474Z,7.90
2022-11-26T21:46:24.754Z,7.28
2022-11-26T21:48:55.029Z,7.18
2022-11-26T21:51:25.417Z,7.93
2022-11-26T21:53:55.310Z,7.32
2022-11-26T21:56:29.530Z,6.90
2022-11-26T21:58:58.920Z,6.45
2022-11-26T22:01:33.270Z,6.40
2022-11-26T22:04:07.571Z,6.40
2022-11-26T22:06:36.457Z,5.55
2022-11-26T22:09:05.828Z,5.78
2022-11-26T22:11:37.459Z,6.13
2022-11-26T22:14:06.417Z,6.28
2022-11-26T22:16:36.345Z,6.70
2022-11-26T22:19:05.852Z,6.30
2022-11-26T22:21:40.133Z,5.93
2022-11-26T22:24:12.189Z,5.53
2022-11-26T22:26:40.688Z,4.93
2022-11-26T22:29:10.735Z,5.03
2022-11-26T22:31:39.122Z,6.15
2022-11-26T22:34:12.849Z,5.70
2022-11-26T22:36:42.350Z,6.30
2022-11-26T22:39:14.060Z,5.30
2022-11-26T22:41:43.255Z,5.38
2022-11-26T22:44:12.196Z,5.40
2022-11-26T22:46:40.590Z,5.15
2022-11-26T22:49:12.366Z,5.25
2022-11-26T22:51:40.872Z,6.18
2022-11-26T22:54:12.416Z,6.65
2022-11-26T22:56:41.062Z,7.72
2022-11-26T22:59:12.265Z,7.30
2022-11-26T23:01:41.049Z,8.60
2022-11-26T23:04:11.795Z,11.80
2022-11-26T23:06:40.716Z,13.18
2022-11-26T23:09:10.466Z,12.95
2022-11-26T23:11:40.943Z,10.48
2022-11-26T23:14:12.131Z,9.57
2022-11-26T23:16:42.488Z,8.80
2022-11-26T23:19:14.298Z,8.57
2022-11-26T23:21:45.042Z,7.47
2022-11-26T23:24:15.840Z,7.40
2022-11-26T23:26:44.840Z,6.90
2022-11-26T23:29:13.729Z,6.55
2022-11-26T23:31:44.080Z,7.78
2022-11-26T23:34:13.416Z,6.38
2022-11-26T23:36:41.531Z,7.35
2022-11-26T23:39:12.459Z,8.77
2022-11-26T23:41:40.502Z,10.60
2022-11-26T23:44:08.667Z,10.93
2022-11-26T23:46:36.664Z,12.15
2022-11-26T23:49:05.333Z,12.23
2022-11-26T23:51:34.163Z,11.35
2022-11-26T23:54:02.334Z,9.85
2022-11-26T23:56:33.176Z,9.23
2022-11-26T23:59:03.738Z,7.97
